Aeroporto :
LOGIN :

Iscrizione | Disclaimer

   EN    FR    IT 

 










Sommario :    VFR   VFR Marginale   IFR   IFR Intensivo   IFR Molto Intensivo
Visibilità : 
Base nubi : 
>= 8 km
>= 3000ft
5 / 8 km
1000 / 3000 ft
1500m / 5 km
500 / 1000 ft
800 / 1500m
200 / 500 ft
< 800m
< 200 ft
Simboli :   Temporali  Nebbia  Neve Forte  Precipitazioni Forti  Vento > 20 kt
SIGMETs :   Varie  Temporali  Ghiacco  Turbolenza  Onda orograficha  Ceneri Vulcaniche






- Altitudine del aeroporto : 279 ft
- Codice IATA : TGR


DAUK - Touggourt Sidi Mahdi

ULTIMO METAR :
  • 250200Z 06004KT 9999 FEW040 18/12 Q1021

METARs OBSOLETI :
  • 250100Z 33012KT 9999 FEW040 19/12 Q1022 RERA
  • 250045Z 33014KT 9999 FEW040 19/13 Q1023
  • 250025Z 33014KT 9999 RA FEW033CB SCT040 21/14 Q1023
  • 242300Z 35006KT 9999 FEW040 22/13 Q1022

TAF TAF DAUK
Valido dal 25 a 03 ore il 25 a 12 ore UTC


250200Z 2503/2512 30008KT 9999 FEW040



MetMap, La meteo Aeronautica in un colpo d'occhio ! - Copyright ORBIFLY Dicembre 2007 - Disclaimer

ORBIFLY MET'MAP TEAM :

Programmazione e sviluppo : Alexandra Zaïnal
Concezione : Baudouin d'Aumeries
Aiuto per la programmazione : Marc-Olivier Méhu
Supporto tecnico e logistico : Manuel Goepfert
Aiuto per la traduzione : Arnaldo La Scala

Contatto : metmap@orbifly.com




FONTI E CREDITI :

   NOAA